To NAV CANADA Home Page Login to a new session Search on AWWS site Feedback and Comments Disclaimer Vers la page française équivalente Tips FAQ What's new on the site To the Forecasts and Observations / NOTAM section To "File a Flight Plan" website Publications and other links Update of the User's profile FIC Telephone Numbers My Weather Data Folder Route Weather Data Regional Weather Data Local Weather Data To the Forecasts and Observations / NOTAM section
Request Generated 08/22/2017 at 03:19:30 UTC . Weather information available at that time is displayed.

METAR/TAF

STONY RAPIDS/SK    (show WxCam)

METAR CYSF 220300Z AUTO 26004KT 9SM CLR 12/10 A2995 RMK SLP152=
METAR CYSF 220200Z AUTO 26005KT 9SM SCT080 15/10 A2994 RMK SLP147
DENSITY ALT 900FT=
METAR CYSF 220100Z AUTO VRB02KT 9SM CLR 17/09 A2992 RMK SLP143
DENSITY ALT 1200FT=

TAF CYSF 212338Z 2200/2212 28010KT P6SM SCT040
BECMG 2204/2206 VRB03KT
FM220800 VRB03KT P6SM SCT025 PROB30 2208/2212 1/2SM FG VV002
RMK FCST BASED ON AUTO OBS. NXT FCST BY 220600Z=
Your time UTC time
Weather data provided by Environment Canada and NAV CANADA